createdAt,value
2023-07-27T00:02:13.543Z,67.00
2023-07-27T00:04:40.672Z,66.70
2023-07-27T00:07:07.809Z,67.60
2023-07-27T00:09:34.994Z,67.30
2023-07-27T00:12:02.200Z,67.30
2023-07-27T00:14:29.447Z,67.20
2023-07-27T00:16:56.563Z,67.60
2023-07-27T00:19:23.723Z,67.60
2023-07-27T00:21:50.964Z,67.10
2023-07-27T00:24:18.114Z,67.20
2023-07-27T00:26:45.326Z,67.10
2023-07-27T00:29:12.572Z,67.10
2023-07-27T00:31:39.752Z,67.30
2023-07-27T00:34:07.069Z,67.10
2023-07-27T00:36:34.448Z,67.10
2023-07-27T00:39:01.871Z,67.10
2023-07-27T00:41:29.030Z,67.10
2023-07-27T00:43:56.413Z,67.10
2023-07-27T00:46:23.610Z,67.10
2023-07-27T00:48:50.852Z,67.10
2023-07-27T00:51:18.264Z,67.00
2023-07-27T00:53:45.466Z,67.00
2023-07-27T00:56:12.832Z,67.00
2023-07-27T00:58:42.914Z,67.00
2023-07-27T01:01:11.115Z,68.30
2023-07-27T01:03:38.445Z,67.70
2023-07-27T01:06:05.794Z,67.40
2023-07-27T01:08:32.971Z,67.10
2023-07-27T01:11:29.209Z,67.70
2023-07-27T01:14:07.203Z,67.80
2023-07-27T01:16:43.406Z,69.20
2023-07-27T01:19:29.417Z,69.10
2023-07-27T01:22:22.621Z,68.60
2023-07-27T01:25:08.381Z,69.50
2023-07-27T01:27:53.052Z,69.70
2023-07-27T01:30:26.318Z,70.00
2023-07-27T01:32:59.154Z,69.50
2023-07-27T01:35:39.426Z,70.60
2023-07-27T01:38:09.317Z,69.60
2023-07-27T01:40:38.241Z,69.60
2023-07-27T01:43:06.668Z,70.00
2023-07-27T01:45:33.857Z,69.20
2023-07-27T01:48:01.027Z,69.80
2023-07-27T01:50:30.040Z,70.50
2023-07-27T01:52:58.344Z,70.70
2023-07-27T01:55:25.909Z,70.10
2023-07-27T01:57:53.741Z,70.60
2023-07-27T02:00:21.366Z,70.70
2023-07-27T02:02:48.917Z,70.70
2023-07-27T02:05:17.179Z,71.00
2023-07-27T02:07:44.596Z,71.60
2023-07-27T02:10:14.165Z,71.50
2023-07-27T02:12:45.817Z,71.10
2023-07-27T02:15:19.430Z,71.00
2023-07-27T02:17:56.064Z,72.20
2023-07-27T02:20:23.830Z,73.20
2023-07-27T02:22:52.520Z,72.00
2023-07-27T02:25:20.088Z,72.60
2023-07-27T02:27:47.345Z,72.10
2023-07-27T02:30:14.518Z,72.00
2023-07-27T02:32:41.709Z,72.10
2023-07-27T02:35:09.313Z,73.90
2023-07-27T02:37:36.478Z,74.20
2023-07-27T02:40:03.981Z,74.10
2023-07-27T02:42:31.151Z,73.80
2023-07-27T02:44:58.449Z,75.30
2023-07-27T02:47:25.949Z,74.30
2023-07-27T02:49:53.029Z,75.20
2023-07-27T02:52:20.132Z,74.30
2023-07-27T02:54:47.240Z,74.10
2023-07-27T02:57:14.390Z,74.80
2023-07-27T02:59:41.553Z,74.80
2023-07-27T03:02:08.713Z,73.90
2023-07-27T03:04:36.028Z,74.70
2023-07-27T03:07:03.195Z,74.60
2023-07-27T03:09:30.733Z,73.90
2023-07-27T03:11:57.861Z,74.70
2023-07-27T03:14:24.957Z,74.40
2023-07-27T03:16:52.177Z,76.00
2023-07-27T03:19:19.360Z,75.20
2023-07-27T03:21:46.504Z,76.00
2023-07-27T03:24:17.632Z,76.50
2023-07-27T03:26:45.209Z,75.90
2023-07-27T03:29:12.469Z,76.10
2023-07-27T03:31:39.924Z,75.90
2023-07-27T03:34:07.069Z,76.50
2023-07-27T03:36:34.495Z,76.70
2023-07-27T03:39:02.048Z,77.30
2023-07-27T03:41:29.142Z,77.50
2023-07-27T03:43:56.405Z,77.20
2023-07-27T03:46:23.624Z,76.90
2023-07-27T03:48:51.466Z,76.10
2023-07-27T03:51:18.886Z,77.20
2023-07-27T03:53:46.012Z,77.00
2023-07-27T03:56:13.204Z,77.20
2023-07-27T03:58:40.408Z,76.70
2023-07-27T04:01:07.881Z,76.80
2023-07-27T04:03:35.401Z,76.50
2023-07-27T04:06:02.574Z,77.30
2023-07-27T04:08:29.716Z,77.20
2023-07-27T04:10:56.869Z,77.20
2023-07-27T04:13:23.994Z,77.50
2023-07-27T04:15:51.139Z,77.00
2023-07-27T04:18:18.403Z,76.70
2023-07-27T04:20:45.568Z,76.80
2023-07-27T04:23:12.785Z,76.70
2023-07-27T04:25:39.834Z,76.80
2023-07-27T04:28:06.959Z,77.00
2023-07-27T04:30:34.088Z,76.80
2023-07-27T04:33:01.345Z,76.30
2023-07-27T04:35:28.565Z,76.10
2023-07-27T04:37:55.724Z,75.90
2023-07-27T04:40:22.865Z,75.90
2023-07-27T04:42:49.970Z,75.90
2023-07-27T04:45:17.286Z,75.90
2023-07-27T04:47:44.421Z,75.60
2023-07-27T04:50:12.008Z,75.40
2023-07-27T04:52:39.168Z,75.10
2023-07-27T04:55:06.887Z,75.10
2023-07-27T04:57:34.033Z,74.80
2023-07-27T05:00:01.162Z,74.70
2023-07-27T05:02:28.288Z,74.40
2023-07-27T05:04:55.382Z,74.10
2023-07-27T05:07:22.597Z,74.30
2023-07-27T05:09:49.765Z,74.10
2023-07-27T05:12:16.926Z,73.00
2023-07-27T05:14:44.014Z,72.90
2023-07-27T05:17:11.082Z,72.60
2023-07-27T05:19:38.300Z,72.40
2023-07-27T05:22:05.713Z,72.10
2023-07-27T05:24:32.832Z,72.00
2023-07-27T05:27:00.027Z,71.40
2023-07-27T05:29:27.241Z,71.30
2023-07-27T05:31:54.367Z,70.90
2023-07-27T05:34:21.671Z,70.70
2023-07-27T05:36:48.813Z,70.70
2023-07-27T05:39:15.903Z,70.80
2023-07-27T05:41:43.086Z,69.80
2023-07-27T05:44:10.188Z,70.10
2023-07-27T05:46:37.400Z,69.60
2023-07-27T05:49:05.803Z,69.00
2023-07-27T05:51:32.979Z,68.90
2023-07-27T05:54:00.125Z,67.90
2023-07-27T05:56:27.241Z,68.20
2023-07-27T05:58:54.374Z,68.00
2023-07-27T06:01:22.150Z,67.50
2023-07-27T06:04:05.410Z,67.50
2023-07-27T06:06:34.576Z,67.30
2023-07-27T06:09:01.936Z,65.90
2023-07-27T06:11:29.111Z,66.60
2023-07-27T06:13:56.249Z,66.90
2023-07-27T06:16:23.517Z,66.70
2023-07-27T06:18:50.767Z,65.20
2023-07-27T06:21:17.845Z,64.70
2023-07-27T06:23:44.968Z,64.90
2023-07-27T06:26:12.082Z,64.60
2023-07-27T06:28:39.272Z,64.30
2023-07-27T06:31:06.456Z,63.40
2023-07-27T06:33:33.630Z,63.70
2023-07-27T06:36:00.776Z,64.20
2023-07-27T06:38:27.918Z,63.30
2023-07-27T06:40:55.004Z,63.30
2023-07-27T06:43:23.046Z,62.90
2023-07-27T06:45:50.312Z,62.90
2023-07-27T06:48:17.767Z,63.30
2023-07-27T06:50:44.915Z,62.60
2023-07-27T06:53:12.061Z,62.60
2023-07-27T06:55:39.738Z,62.80
2023-07-27T06:58:06.878Z,62.10
2023-07-27T07:00:34.100Z,61.70
2023-07-27T07:03:01.345Z,62.40
2023-07-27T07:05:28.580Z,62.00
2023-07-27T07:07:55.893Z,60.70
2023-07-27T07:10:23.080Z,61.50
2023-07-27T07:12:50.557Z,60.90
2023-07-27T07:15:18.682Z,60.80
2023-07-27T07:17:46.244Z,60.10
2023-07-27T07:20:13.686Z,60.20
2023-07-27T07:22:40.903Z,60.00
2023-07-27T07:25:08.723Z,59.90
2023-07-27T07:27:35.837Z,60.20
2023-07-27T07:30:05.458Z,59.60
2023-07-27T07:32:34.934Z,59.30
2023-07-27T07:35:02.859Z,59.40
2023-07-27T07:37:30.138Z,58.90
2023-07-27T07:39:57.380Z,59.00
2023-07-27T07:42:24.561Z,58.60
2023-07-27T07:44:51.747Z,58.40
2023-07-27T07:47:19.048Z,58.10
2023-07-27T07:49:46.260Z,58.70
2023-07-27T07:52:14.790Z,57.40
2023-07-27T07:54:41.974Z,57.90
2023-07-27T07:57:09.146Z,58.10
2023-07-27T07:59:36.300Z,57.40
2023-07-27T08:02:03.874Z,57.60
2023-07-27T08:04:32.124Z,57.30
2023-07-27T08:06:59.509Z,57.50
2023-07-27T08:09:26.695Z,57.20
2023-07-27T08:11:54.305Z,56.80
2023-07-27T08:14:21.613Z,56.40
2023-07-27T08:16:48.752Z,56.70
2023-07-27T08:19:16.010Z,54.80
2023-07-27T08:21:43.176Z,54.80
2023-07-27T08:24:10.452Z,54.80
2023-07-27T08:26:37.730Z,54.50
2023-07-27T08:29:04.861Z,54.80
2023-07-27T08:31:31.986Z,53.80
2023-07-27T08:33:59.164Z,54.00
2023-07-27T08:36:26.453Z,53.70
2023-07-27T08:38:53.829Z,53.90
2023-07-27T08:41:21.568Z,54.20
2023-07-27T08:43:48.726Z,54.50
2023-07-27T08:46:16.322Z,54.50
2023-07-27T08:48:44.094Z,53.80
2023-07-27T08:51:11.351Z,53.70
2023-07-27T08:53:38.427Z,52.80
2023-07-27T08:56:05.853Z,52.90
2023-07-27T08:58:33.513Z,52.20
2023-07-27T09:01:00.823Z,52.10
2023-07-27T09:03:28.202Z,52.60
2023-07-27T09:06:00.756Z,52.90
2023-07-27T09:08:30.113Z,52.60
2023-07-27T09:11:08.918Z,52.40
2023-07-27T09:13:37.047Z,49.70
2023-07-27T09:16:07.161Z,49.60
2023-07-27T09:18:40.021Z,50.40
2023-07-27T09:21:09.277Z,50.40
2023-07-27T09:23:37.174Z,51.10
2023-07-27T09:26:04.309Z,49.40
2023-07-27T09:28:31.439Z,50.30
2023-07-27T09:31:04.163Z,50.10
2023-07-27T09:33:32.447Z,49.30
2023-07-27T09:35:59.689Z,49.60
2023-07-27T09:38:28.479Z,48.10
2023-07-27T09:40:55.982Z,48.90
2023-07-27T09:43:24.661Z,47.80
2023-07-27T09:45:59.677Z,49.00
2023-07-27T09:48:30.358Z,48.80
2023-07-27T09:51:02.920Z,48.70
2023-07-27T09:53:33.367Z,49.00
2023-07-27T09:56:01.041Z,47.30
2023-07-27T09:58:30.938Z,48.30
2023-07-27T10:01:00.150Z,48.50
2023-07-27T10:03:27.296Z,48.10
2023-07-27T10:05:55.397Z,48.10
2023-07-27T10:08:23.033Z,47.80
2023-07-27T10:10:59.284Z,46.10
2023-07-27T10:13:26.374Z,47.00
2023-07-27T10:15:56.781Z,47.30
2023-07-27T10:18:27.413Z,47.50
2023-07-27T10:21:18.182Z,46.60
2023-07-27T10:24:03.058Z,47.60
2023-07-27T10:26:52.025Z,47.00
2023-07-27T10:29:24.781Z,44.40
2023-07-27T10:32:05.671Z,44.00
2023-07-27T10:34:41.037Z,44.90
2023-07-27T10:37:11.035Z,45.10
2023-07-27T10:39:49.108Z,45.30
2023-07-27T10:42:19.593Z,44.60
2023-07-27T10:44:49.186Z,43.60
2023-07-27T10:47:33.727Z,45.10
2023-07-27T10:50:01.649Z,45.40
2023-07-27T10:52:30.059Z,44.90
2023-07-27T10:54:59.682Z,44.70
2023-07-27T10:57:52.182Z,44.30
2023-07-27T11:00:19.287Z,44.60
2023-07-27T11:02:46.777Z,43.30
2023-07-27T11:05:14.504Z,42.90
2023-07-27T11:07:44.134Z,42.40
2023-07-27T11:10:14.066Z,43.10
2023-07-27T11:12:56.007Z,42.90
2023-07-27T11:15:25.539Z,43.10
2023-07-27T11:17:55.402Z,42.50
2023-07-27T11:20:24.464Z,41.70
2023-07-27T11:22:52.914Z,41.80
2023-07-27T11:25:20.657Z,41.90
2023-07-27T11:27:53.008Z,40.70
2023-07-27T11:30:23.398Z,38.70
2023-07-27T11:33:01.765Z,40.00
2023-07-27T11:35:29.411Z,40.70
2023-07-27T11:37:56.813Z,40.60
2023-07-27T11:40:24.575Z,40.20
2023-07-27T11:42:51.826Z,40.30
2023-07-27T11:45:19.205Z,40.40
2023-07-27T11:47:46.618Z,39.50
2023-07-27T11:50:17.972Z,38.90
2023-07-27T11:52:45.294Z,38.60
2023-07-27T11:55:16.993Z,39.90
2023-07-27T11:57:53.854Z,39.50
2023-07-27T12:00:21.052Z,38.90
2023-07-27T12:02:51.552Z,39.10
2023-07-27T12:05:23.265Z,39.50
2023-07-27T12:15:37.777Z,39.60
2023-07-27T12:18:08.467Z,39.50
2023-07-27T12:25:39.690Z,39.20
2023-07-27T12:30:43.192Z,38.50
2023-07-27T12:33:14.053Z,39.10
2023-07-27T12:35:41.548Z,38.20
2023-07-27T12:43:09.004Z,38.10
2023-07-27T12:45:36.146Z,38.70
2023-07-27T12:48:03.343Z,37.80
2023-07-27T12:50:30.591Z,37.80
2023-07-27T12:52:57.790Z,37.80
2023-07-27T12:55:24.998Z,38.10
2023-07-27T12:57:52.107Z,38.50
2023-07-27T13:00:19.938Z,37.30
2023-07-27T13:02:48.301Z,36.90
2023-07-27T13:05:16.993Z,37.80
2023-07-27T13:07:46.272Z,37.80
2023-07-27T13:10:14.625Z,38.20
2023-07-27T13:12:42.057Z,37.20
2023-07-27T13:15:09.842Z,37.80
2023-07-27T13:17:38.625Z,36.70
2023-07-27T13:20:07.900Z,38.00
2023-07-27T13:22:35.567Z,37.80
2023-07-27T13:25:03.980Z,36.40
2023-07-27T13:27:32.879Z,37.20
2023-07-27T13:30:04.836Z,37.60
2023-07-27T13:32:32.940Z,37.30
2023-07-27T13:35:01.156Z,37.10
2023-07-27T13:37:29.954Z,36.50
2023-07-27T13:39:57.497Z,35.70
2023-07-27T13:42:25.131Z,36.60
2023-07-27T13:44:52.448Z,36.80
2023-07-27T13:47:19.586Z,37.00
2023-07-27T13:49:46.796Z,37.00
2023-07-27T13:52:15.325Z,36.10
2023-07-27T13:54:42.449Z,36.00
2023-07-27T13:57:10.754Z,36.30
2023-07-27T13:59:37.846Z,36.70
2023-07-27T14:02:05.326Z,36.80
2023-07-27T14:04:32.964Z,37.00
2023-07-27T14:07:00.095Z,37.10
2023-07-27T14:09:28.149Z,36.90
2023-07-27T14:11:55.213Z,36.50
2023-07-27T14:14:22.371Z,36.80
2023-07-27T14:16:49.457Z,37.10
2023-07-27T14:19:16.689Z,37.40
2023-07-27T14:21:43.759Z,37.40
2023-07-27T14:24:10.944Z,37.60
2023-07-27T14:26:38.129Z,37.60
2023-07-27T14:29:05.268Z,37.70
2023-07-27T14:31:33.359Z,37.60
2023-07-27T14:34:04.287Z,38.00
2023-07-27T14:36:31.551Z,38.10
2023-07-27T14:41:30.972Z,36.90
2023-07-27T14:43:58.256Z,37.20
2023-07-27T14:46:25.845Z,37.40
2023-07-27T14:48:53.012Z,37.70
2023-07-27T14:51:20.284Z,37.70
2023-07-27T14:53:50.425Z,37.70
2023-07-27T14:56:21.848Z,37.40
2023-07-27T14:58:50.229Z,37.80
2023-07-27T15:01:17.597Z,37.40
2023-07-27T15:06:15.215Z,38.10
2023-07-27T15:08:42.432Z,37.70
2023-07-27T15:13:39.648Z,38.30
2023-07-27T15:16:06.741Z,38.10
2023-07-27T15:18:36.026Z,38.10
2023-07-27T15:21:03.730Z,38.70
2023-07-27T15:23:31.047Z,38.10
2023-07-27T15:26:03.176Z,38.40
2023-07-27T15:28:30.778Z,38.50
2023-07-27T15:30:58.546Z,38.10
2023-07-27T15:33:25.835Z,38.40
2023-07-27T15:35:53.257Z,38.50
2023-07-27T15:38:20.398Z,38.40
2023-07-27T15:40:49.523Z,38.20
2023-07-27T15:43:18.261Z,38.10
2023-07-27T15:45:48.891Z,38.00
2023-07-27T15:48:20.059Z,37.70
2023-07-27T15:50:48.090Z,36.80
2023-07-27T15:53:15.396Z,35.70
2023-07-27T15:55:43.457Z,34.80
2023-07-27T15:58:11.472Z,34.10
2023-07-27T16:00:42.004Z,33.30
2023-07-27T16:03:09.844Z,32.20
2023-07-27T16:05:38.526Z,32.10
2023-07-27T16:08:06.248Z,32.10
2023-07-27T16:10:33.411Z,31.20
2023-07-27T16:13:00.643Z,29.70
2023-07-27T16:15:29.718Z,30.40
2023-07-27T16:17:57.510Z,30.50
2023-07-27T16:20:24.951Z,30.70
2023-07-27T16:22:52.711Z,30.60
2023-07-27T16:25:22.648Z,30.20
2023-07-27T16:27:49.912Z,30.00
2023-07-27T16:30:17.121Z,28.40
2023-07-27T16:32:44.270Z,29.70
2023-07-27T16:35:11.688Z,29.20
2023-07-27T16:37:38.850Z,28.90
2023-07-27T16:40:06.706Z,28.60
2023-07-27T16:42:33.784Z,28.80
2023-07-27T16:45:01.157Z,28.80
2023-07-27T16:47:28.448Z,29.00
2023-07-27T16:49:55.788Z,29.20
2023-07-27T16:52:22.870Z,30.00
2023-07-27T16:54:50.010Z,31.00
2023-07-27T16:57:17.274Z,31.30
2023-07-27T16:59:44.384Z,33.10
2023-07-27T17:02:14.204Z,33.70
2023-07-27T17:04:41.407Z,34.10
2023-07-27T17:07:08.869Z,34.70
2023-07-27T17:09:39.330Z,35.10
2023-07-27T17:12:08.347Z,35.40
2023-07-27T17:14:37.934Z,35.70
2023-07-27T17:17:05.430Z,36.10
2023-07-27T17:19:32.769Z,36.40
2023-07-27T17:21:59.933Z,36.60
2023-07-27T17:24:27.110Z,36.90
2023-07-27T17:26:54.215Z,37.10
2023-07-27T17:29:21.373Z,37.30
2023-07-27T17:31:48.660Z,37.50
2023-07-27T17:34:15.814Z,37.70
2023-07-27T17:36:42.973Z,37.90
2023-07-27T17:39:10.140Z,38.20
2023-07-27T17:41:37.837Z,38.40
2023-07-27T17:44:05.481Z,38.80
2023-07-27T17:46:33.210Z,39.40
2023-07-27T17:49:00.394Z,39.50
2023-07-27T17:51:27.708Z,39.40
2023-07-27T17:53:54.962Z,39.60
2023-07-27T17:56:22.118Z,39.80
2023-07-27T17:58:49.238Z,40.00
2023-07-27T18:01:16.554Z,40.10
2023-07-27T18:03:43.892Z,41.30
2023-07-27T18:06:11.745Z,40.50
2023-07-27T18:08:39.451Z,40.60
2023-07-27T18:11:13.364Z,40.70
2023-07-27T18:13:42.115Z,40.90
2023-07-27T18:16:13.892Z,41.00
2023-07-27T18:18:41.347Z,41.10
2023-07-27T18:21:10.270Z,41.20
2023-07-27T18:23:37.704Z,41.50
2023-07-27T18:26:05.211Z,41.70
2023-07-27T18:28:32.666Z,41.80
2023-07-27T18:31:06.313Z,42.00
2023-07-27T18:33:33.889Z,42.10
2023-07-27T18:36:14.336Z,42.10
2023-07-27T18:38:44.585Z,42.00
2023-07-27T18:41:14.255Z,42.30
2023-07-27T18:43:42.325Z,42.40
2023-07-27T18:46:09.823Z,43.10
2023-07-27T18:48:37.191Z,43.00
2023-07-27T18:51:05.718Z,43.20
2023-07-27T18:53:33.096Z,43.10
2023-07-27T18:56:00.244Z,43.40
2023-07-27T18:58:27.385Z,44.10
2023-07-27T19:00:55.460Z,43.40
2023-07-27T19:03:27.019Z,43.70
2023-07-27T19:05:54.205Z,43.60
2023-07-27T19:08:21.636Z,43.70
2023-07-27T19:10:48.800Z,44.00
2023-07-27T19:13:15.900Z,44.20
2023-07-27T19:15:50.084Z,44.20
2023-07-27T19:18:17.434Z,44.20
2023-07-27T19:20:44.788Z,44.30
2023-07-27T19:23:11.904Z,44.30
2023-07-27T19:25:43.035Z,44.30
2023-07-27T19:28:11.320Z,44.40
2023-07-27T19:30:39.859Z,45.00
2023-07-27T19:33:11.556Z,45.10
2023-07-27T19:35:39.924Z,45.60
2023-07-27T19:38:08.770Z,44.90
2023-07-27T19:40:36.355Z,44.90
2023-07-27T19:43:03.635Z,45.00
2023-07-27T19:45:30.836Z,44.90
2023-07-27T19:47:58.130Z,45.30
2023-07-27T19:50:25.341Z,45.10
2023-07-27T19:52:52.598Z,45.30
2023-07-27T19:55:19.688Z,45.30
2023-07-27T19:57:46.810Z,45.50
2023-07-27T20:00:14.280Z,45.30
2023-07-27T20:02:41.487Z,45.90
2023-07-27T20:05:09.193Z,45.60
2023-07-27T20:07:36.351Z,45.70
2023-07-27T20:10:04.227Z,45.70
2023-07-27T20:12:31.390Z,45.90
2023-07-27T20:14:58.473Z,45.90
2023-07-27T20:17:25.630Z,46.20
2023-07-27T20:19:52.860Z,46.30
2023-07-27T20:22:19.904Z,46.10
2023-07-27T20:24:47.410Z,46.60
2023-07-27T20:27:14.578Z,46.40
2023-07-27T20:29:41.837Z,47.10
2023-07-27T20:32:09.191Z,46.50
2023-07-27T20:34:36.271Z,46.50
2023-07-27T20:37:03.446Z,47.10
2023-07-27T20:39:30.690Z,46.60
2023-07-27T20:41:59.363Z,46.80
2023-07-27T20:44:26.545Z,46.80
2023-07-27T20:46:53.612Z,46.90
2023-07-27T20:49:20.793Z,47.00
2023-07-27T20:51:48.001Z,47.20
2023-07-27T20:54:15.109Z,47.00
2023-07-27T20:56:42.245Z,47.10
2023-07-27T20:59:09.452Z,47.30
2023-07-27T21:01:36.531Z,47.30
2023-07-27T21:04:03.798Z,47.40
2023-07-27T21:06:32.777Z,47.50
2023-07-27T21:09:00.931Z,47.80
2023-07-27T21:11:28.162Z,47.60
2023-07-27T21:13:55.319Z,47.90
2023-07-27T21:16:22.463Z,47.60
2023-07-27T21:18:49.699Z,47.70
2023-07-27T21:21:19.285Z,48.40
2023-07-27T21:23:47.564Z,47.80
2023-07-27T21:26:15.122Z,47.80
2023-07-27T21:28:44.872Z,48.30
2023-07-27T21:31:12.785Z,48.10
2023-07-27T21:33:40.405Z,47.90
2023-07-27T21:36:07.696Z,48.00
2023-07-27T21:38:35.006Z,48.70
2023-07-27T21:41:02.633Z,48.00
2023-07-27T21:43:30.122Z,48.10
2023-07-27T21:45:57.292Z,48.10
2023-07-27T21:48:24.371Z,48.20
2023-07-27T21:50:53.134Z,48.30
2023-07-27T21:53:21.098Z,48.30
2023-07-27T21:55:48.519Z,48.90
2023-07-27T21:58:15.673Z,48.70
2023-07-27T22:00:42.830Z,48.70
2023-07-27T22:03:12.450Z,48.70
2023-07-27T22:05:39.776Z,48.70
2023-07-27T22:08:07.445Z,48.80
2023-07-27T22:11:17.882Z,48.70
2023-07-27T22:13:43.121Z,48.80
2023-07-27T22:16:10.343Z,49.00
2023-07-27T22:18:37.543Z,49.10
2023-07-27T22:21:10.863Z,49.30
2023-07-27T22:23:38.218Z,49.30
2023-07-27T22:26:05.408Z,49.60
2023-07-27T22:28:32.707Z,49.70
2023-07-27T22:30:59.819Z,49.70
2023-07-27T22:33:26.967Z,49.80
2023-07-27T22:35:54.187Z,50.30
2023-07-27T22:38:21.407Z,50.30
2023-07-27T22:40:54.312Z,50.20
2023-07-27T22:43:21.643Z,50.00
2023-07-27T22:45:50.653Z,50.20
2023-07-27T22:48:19.044Z,50.20
2023-07-27T22:50:47.841Z,50.80
2023-07-27T22:53:15.623Z,50.80
2023-07-27T22:55:44.892Z,50.80
2023-07-27T22:58:12.762Z,50.70
2023-07-27T23:00:40.154Z,50.60
2023-07-27T23:03:08.050Z,50.70
2023-07-27T23:05:36.291Z,50.90
2023-07-27T23:08:04.537Z,51.10
2023-07-27T23:10:32.200Z,51.20
2023-07-27T23:12:59.701Z,51.20
2023-07-27T23:15:26.829Z,51.10
2023-07-27T23:17:53.985Z,51.20
2023-07-27T23:20:21.182Z,51.10
2023-07-27T23:22:48.309Z,51.20
2023-07-27T23:25:15.448Z,51.40
2023-07-27T23:27:42.513Z,51.50
2023-07-27T23:30:10.311Z,51.60
2023-07-27T23:32:37.487Z,51.60
2023-07-27T23:35:05.197Z,51.80
2023-07-27T23:37:32.331Z,51.80
2023-07-27T23:39:59.416Z,51.90
2023-07-27T23:42:27.167Z,51.80
2023-07-27T23:44:54.325Z,51.90
2023-07-27T23:47:21.463Z,51.90
2023-07-27T23:49:48.689Z,52.20
2023-07-27T23:52:15.793Z,52.10
2023-07-27T23:54:42.876Z,52.50
2023-07-27T23:57:09.918Z,52.20
2023-07-27T23:59:37.068Z,52.40
